sensor_id;sensor_type;location;lat;lon;timestamp;temperature;humidity
25906;DHT22;13713;52.552;13.204;2023-08-12T00:00:05;22.60;61.50
25906;DHT22;13713;52.552;13.204;2023-08-12T00:02:40;22.60;61.50
25906;DHT22;13713;52.552;13.204;2023-08-12T00:05:06;22.60;61.50
25906;DHT22;13713;52.552;13.204;2023-08-12T00:07:35;22.60;61.50
25906;DHT22;13713;52.552;13.204;2023-08-12T00:10:02;22.60;61.50
25906;DHT22;13713;52.552;13.204;2023-08-12T00:12:32;22.60;61.60
25906;DHT22;13713;52.552;13.204;2023-08-12T00:14:58;22.60;61.60
25906;DHT22;13713;52.552;13.204;2023-08-12T00:17:24;22.60;61.60
25906;DHT22;13713;52.552;13.204;2023-08-12T00:19:49;22.60;61.60
25906;DHT22;13713;52.552;13.204;2023-08-12T00:22:15;22.60;61.60
25906;DHT22;13713;52.552;13.204;2023-08-12T00:24:40;22.60;61.60
25906;DHT22;13713;52.552;13.204;2023-08-12T00:27:06;22.60;61.60
25906;DHT22;13713;52.552;13.204;2023-08-12T00:29:32;22.60;61.60
25906;DHT22;13713;52.552;13.204;2023-08-12T00:31:58;22.60;61.60
25906;DHT22;13713;52.552;13.204;2023-08-12T00:34:24;22.60;61.60
25906;DHT22;13713;52.552;13.204;2023-08-12T00:36:49;22.60;61.60
25906;DHT22;13713;52.552;13.204;2023-08-12T00:39:15;22.60;61.60
25906;DHT22;13713;52.552;13.204;2023-08-12T00:41:41;22.60;61.60
25906;DHT22;13713;52.552;13.204;2023-08-12T00:44:06;22.60;61.60
25906;DHT22;13713;52.552;13.204;2023-08-12T00:46:34;22.60;61.60
25906;DHT22;13713;52.552;13.204;2023-08-12T00:49:00;22.60;61.60
25906;DHT22;13713;52.552;13.204;2023-08-12T00:51:25;22.60;61.60
25906;DHT22;13713;52.552;13.204;2023-08-12T00:53:51;22.60;61.60
25906;DHT22;13713;52.552;13.204;2023-08-12T00:56:18;22.60;61.70
25906;DHT22;13713;52.552;13.204;2023-08-12T00:58:43;22.60;61.60
25906;DHT22;13713;52.552;13.204;2023-08-12T01:01:09;22.60;61.70
25906;DHT22;13713;52.552;13.204;2023-08-12T01:03:36;22.60;61.70
25906;DHT22;13713;52.552;13.204;2023-08-12T01:06:02;22.50;61.60
25906;DHT22;13713;52.552;13.204;2023-08-12T01:08:28;22.50;61.60
25906;DHT22;13713;52.552;13.204;2023-08-12T01:10:57;22.60;61.70
25906;DHT22;13713;52.552;13.204;2023-08-12T01:16:09;22.50;61.60
25906;DHT22;13713;52.552;13.204;2023-08-12T01:18:36;22.50;61.60
25906;DHT22;13713;52.552;13.204;2023-08-12T01:21:02;22.50;61.60
25906;DHT22;13713;52.552;13.204;2023-08-12T01:23:29;22.60;61.70
25906;DHT22;13713;52.552;13.204;2023-08-12T01:25:54;22.60;61.70
25906;DHT22;13713;52.552;13.204;2023-08-12T01:28:20;22.60;61.70
25906;DHT22;13713;52.552;13.204;2023-08-12T01:30:49;22.60;61.70
25906;DHT22;13713;52.552;13.204;2023-08-12T01:33:38;22.50;61.60
25906;DHT22;13713;52.552;13.204;2023-08-12T01:36:07;22.60;61.70
25906;DHT22;13713;52.552;13.204;2023-08-12T01:38:34;22.50;61.60
25906;DHT22;13713;52.552;13.204;2023-08-12T01:41:01;22.50;61.60
25906;DHT22;13713;52.552;13.204;2023-08-12T01:43:27;22.50;61.60
25906;DHT22;13713;52.552;13.204;2023-08-12T01:45:53;22.60;61.70
25906;DHT22;13713;52.552;13.204;2023-08-12T01:48:19;22.50;61.70
25906;DHT22;13713;52.552;13.204;2023-08-12T01:50:48;22.50;61.70
25906;DHT22;13713;52.552;13.204;2023-08-12T01:53:14;22.50;61.60
25906;DHT22;13713;52.552;13.204;2023-08-12T01:55:44;22.50;61.60
25906;DHT22;13713;52.552;13.204;2023-08-12T01:58:10;22.50;61.60
25906;DHT22;13713;52.552;13.204;2023-08-12T02:00:36;22.50;61.60
25906;DHT22;13713;52.552;13.204;2023-08-12T02:03:02;22.50;61.70
25906;DHT22;13713;52.552;13.204;2023-08-12T02:05:27;22.50;61.70
25906;DHT22;13713;52.552;13.204;2023-08-12T02:07:53;22.50;61.60
25906;DHT22;13713;52.552;13.204;2023-08-12T02:10:18;22.50;61.70
25906;DHT22;13713;52.552;13.204;2023-08-12T02:12:44;22.50;61.70
25906;DHT22;13713;52.552;13.204;2023-08-12T02:15:10;22.50;61.70
25906;DHT22;13713;52.552;13.204;2023-08-12T02:17:36;22.50;61.70
25906;DHT22;13713;52.552;13.204;2023-08-12T02:20:02;22.50;61.70
25906;DHT22;13713;52.552;13.204;2023-08-12T02:22:29;22.50;61.70
25906;DHT22;13713;52.552;13.204;2023-08-12T02:24:54;22.50;61.70
25906;DHT22;13713;52.552;13.204;2023-08-12T02:27:20;22.50;61.70
25906;DHT22;13713;52.552;13.204;2023-08-12T02:29:46;22.50;61.70
25906;DHT22;13713;52.552;13.204;2023-08-12T02:32:11;22.50;61.70
25906;DHT22;13713;52.552;13.204;2023-08-12T02:34:37;22.50;61.70
25906;DHT22;13713;52.552;13.204;2023-08-12T02:37:02;22.50;61.70
25906;DHT22;13713;52.552;13.204;2023-08-12T02:39:29;22.50;61.70
25906;DHT22;13713;52.552;13.204;2023-08-12T02:41:55;22.50;61.70
25906;DHT22;13713;52.552;13.204;2023-08-12T02:44:21;22.50;61.70
25906;DHT22;13713;52.552;13.204;2023-08-12T02:46:46;22.50;61.70
25906;DHT22;13713;52.552;13.204;2023-08-12T02:49:12;22.50;61.70
25906;DHT22;13713;52.552;13.204;2023-08-12T02:51:37;22.50;61.70
25906;DHT22;13713;52.552;13.204;2023-08-12T02:54:03;22.50;61.70
25906;DHT22;13713;52.552;13.204;2023-08-12T02:56:28;22.50;61.70
25906;DHT22;13713;52.552;13.204;2023-08-12T02:58:54;22.50;61.70
25906;DHT22;13713;52.552;13.204;2023-08-12T03:01:20;22.40;61.60
25906;DHT22;13713;52.552;13.204;2023-08-12T03:03:46;22.50;61.80
25906;DHT22;13713;52.552;13.204;2023-08-12T03:06:12;22.50;61.70
25906;DHT22;13713;52.552;13.204;2023-08-12T03:08:38;22.50;61.80
25906;DHT22;13713;52.552;13.204;2023-08-12T03:11:05;22.50;61.80
25906;DHT22;13713;52.552;13.204;2023-08-12T03:13:31;22.50;61.70
25906;DHT22;13713;52.552;13.204;2023-08-12T03:15:57;22.50;61.70
25906;DHT22;13713;52.552;13.204;2023-08-12T03:18:23;22.50;61.70
25906;DHT22;13713;52.552;13.204;2023-08-12T03:20:49;22.40;61.70
25906;DHT22;13713;52.552;13.204;2023-08-12T03:23:14;22.50;61.80
25906;DHT22;13713;52.552;13.204;2023-08-12T03:25:41;22.50;61.80
25906;DHT22;13713;52.552;13.204;2023-08-12T03:28:07;22.40;61.70
25906;DHT22;13713;52.552;13.204;2023-08-12T03:30:33;22.50;61.80
25906;DHT22;13713;52.552;13.204;2023-08-12T03:32:59;22.50;61.80
25906;DHT22;13713;52.552;13.204;2023-08-12T03:35:28;22.50;61.80
25906;DHT22;13713;52.552;13.204;2023-08-12T03:37:55;22.50;61.80
25906;DHT22;13713;52.552;13.204;2023-08-12T03:40:21;22.50;61.80
25906;DHT22;13713;52.552;13.204;2023-08-12T03:42:46;22.50;61.80
25906;DHT22;13713;52.552;13.204;2023-08-12T03:45:12;22.40;61.70
25906;DHT22;13713;52.552;13.204;2023-08-12T03:47:38;22.50;61.80
25906;DHT22;13713;52.552;13.204;2023-08-12T03:50:04;22.50;61.80
25906;DHT22;13713;52.552;13.204;2023-08-12T03:52:31;22.50;61.80
25906;DHT22;13713;52.552;13.204;2023-08-12T03:54:57;22.40;61.70
25906;DHT22;13713;52.552;13.204;2023-08-12T03:57:22;22.50;61.80
25906;DHT22;13713;52.552;13.204;2023-08-12T03:59:48;22.50;61.80
25906;DHT22;13713;52.552;13.204;2023-08-12T04:02:14;22.50;61.80
25906;DHT22;13713;52.552;13.204;2023-08-12T04:04:39;22.50;61.80
25906;DHT22;13713;52.552;13.204;2023-08-12T04:07:05;22.40;61.70
25906;DHT22;13713;52.552;13.204;2023-08-12T04:09:31;22.50;61.80
25906;DHT22;13713;52.552;13.204;2023-08-12T04:11:56;22.40;61.70
25906;DHT22;13713;52.552;13.204;2023-08-12T04:14:22;22.40;61.70
25906;DHT22;13713;52.552;13.204;2023-08-12T04:16:47;22.40;61.70
25906;DHT22;13713;52.552;13.204;2023-08-12T04:19:13;22.50;61.90
25906;DHT22;13713;52.552;13.204;2023-08-12T04:21:39;22.50;61.80
25906;DHT22;13713;52.552;13.204;2023-08-12T04:24:04;22.50;61.90
25906;DHT22;13713;52.552;13.204;2023-08-12T04:26:31;22.40;61.80
25906;DHT22;13713;52.552;13.204;2023-08-12T04:28:56;22.40;61.80
25906;DHT22;13713;52.552;13.204;2023-08-12T04:31:23;22.50;61.90
25906;DHT22;13713;52.552;13.204;2023-08-12T04:33:49;22.40;61.80
25906;DHT22;13713;52.552;13.204;2023-08-12T04:36:18;22.50;61.90
25906;DHT22;13713;52.552;13.204;2023-08-12T04:38:44;22.40;61.80
25906;DHT22;13713;52.552;13.204;2023-08-12T04:41:11;22.40;61.80
25906;DHT22;13713;52.552;13.204;2023-08-12T04:43:36;22.40;61.80
25906;DHT22;13713;52.552;13.204;2023-08-12T04:46:03;22.50;61.90
25906;DHT22;13713;52.552;13.204;2023-08-12T04:48:28;22.50;61.90
25906;DHT22;13713;52.552;13.204;2023-08-12T04:50:56;22.50;61.90
25906;DHT22;13713;52.552;13.204;2023-08-12T04:53:25;22.50;61.90
25906;DHT22;13713;52.552;13.204;2023-08-12T04:55:51;22.40;61.80
25906;DHT22;13713;52.552;13.204;2023-08-12T04:58:18;22.50;62.20
25906;DHT22;13713;52.552;13.204;2023-08-12T05:00:43;22.50;61.90
25906;DHT22;13713;52.552;13.204;2023-08-12T05:03:10;22.50;61.90
25906;DHT22;13713;52.552;13.204;2023-08-12T05:05:36;22.40;61.80
25906;DHT22;13713;52.552;13.204;2023-08-12T05:08:02;22.50;61.80
25906;DHT22;13713;52.552;13.204;2023-08-12T05:10:28;22.40;61.80
25906;DHT22;13713;52.552;13.204;2023-08-12T05:12:54;22.50;61.90
25906;DHT22;13713;52.552;13.204;2023-08-12T05:15:20;22.50;61.90
25906;DHT22;13713;52.552;13.204;2023-08-12T05:17:47;22.40;61.80
25906;DHT22;13713;52.552;13.204;2023-08-12T05:20:16;22.40;61.80
25906;DHT22;13713;52.552;13.204;2023-08-12T05:22:41;22.40;61.80
25906;DHT22;13713;52.552;13.204;2023-08-12T05:25:07;22.50;61.90
25906;DHT22;13713;52.552;13.204;2023-08-12T05:27:33;22.50;61.90
25906;DHT22;13713;52.552;13.204;2023-08-12T05:29:58;22.40;61.80
25906;DHT22;13713;52.552;13.204;2023-08-12T05:32:24;22.50;61.90
25906;DHT22;13713;52.552;13.204;2023-08-12T05:34:52;22.40;61.80
25906;DHT22;13713;52.552;13.204;2023-08-12T05:37:17;22.50;62.00
25906;DHT22;13713;52.552;13.204;2023-08-12T05:39:43;22.40;61.90
25906;DHT22;13713;52.552;13.204;2023-08-12T05:42:08;22.40;61.80
25906;DHT22;13713;52.552;13.204;2023-08-12T05:44:34;22.50;61.90
25906;DHT22;13713;52.552;13.204;2023-08-12T05:46:59;22.40;61.80
25906;DHT22;13713;52.552;13.204;2023-08-12T05:49:25;22.40;61.80
25906;DHT22;13713;52.552;13.204;2023-08-12T05:51:51;22.50;62.00
25906;DHT22;13713;52.552;13.204;2023-08-12T05:54:16;22.40;61.80
25906;DHT22;13713;52.552;13.204;2023-08-12T05:56:42;22.40;61.90
25906;DHT22;13713;52.552;13.204;2023-08-12T05:59:07;22.50;61.90
25906;DHT22;13713;52.552;13.204;2023-08-12T06:01:33;22.50;61.90
25906;DHT22;13713;52.552;13.204;2023-08-12T06:03:58;22.40;61.90
25906;DHT22;13713;52.552;13.204;2023-08-12T06:06:24;22.50;62.00
25906;DHT22;13713;52.552;13.204;2023-08-12T06:08:49;22.50;62.00
25906;DHT22;13713;52.552;13.204;2023-08-12T06:11:15;22.50;61.90
25906;DHT22;13713;52.552;13.204;2023-08-12T06:13:40;22.50;61.90
25906;DHT22;13713;52.552;13.204;2023-08-12T06:16:06;22.50;61.90
25906;DHT22;13713;52.552;13.204;2023-08-12T06:18:32;22.50;61.90
25906;DHT22;13713;52.552;13.204;2023-08-12T06:20:58;22.50;61.90
25906;DHT22;13713;52.552;13.204;2023-08-12T06:23:24;22.50;61.90
25906;DHT22;13713;52.552;13.204;2023-08-12T06:25:49;22.50;61.90
25906;DHT22;13713;52.552;13.204;2023-08-12T06:28:15;22.50;61.90
25906;DHT22;13713;52.552;13.204;2023-08-12T06:30:44;22.50;61.80
25906;DHT22;13713;52.552;13.204;2023-08-12T06:33:09;22.60;61.90
25906;DHT22;13713;52.552;13.204;2023-08-12T06:35:35;22.60;61.80
25906;DHT22;13713;52.552;13.204;2023-08-12T06:38:00;22.60;61.70
25906;DHT22;13713;52.552;13.204;2023-08-12T06:40:26;22.60;61.70
25906;DHT22;13713;52.552;13.204;2023-08-12T06:42:53;22.60;61.70
25906;DHT22;13713;52.552;13.204;2023-08-12T06:45:18;22.60;61.70
25906;DHT22;13713;52.552;13.204;2023-08-12T06:47:44;22.60;61.70
25906;DHT22;13713;52.552;13.204;2023-08-12T06:50:09;22.60;61.70
25906;DHT22;13713;52.552;13.204;2023-08-12T06:52:35;22.60;61.70
25906;DHT22;13713;52.552;13.204;2023-08-12T06:55:01;22.60;61.70
25906;DHT22;13713;52.552;13.204;2023-08-12T06:57:27;22.60;61.80
25906;DHT22;13713;52.552;13.204;2023-08-12T06:59:52;22.60;61.70
25906;DHT22;13713;52.552;13.204;2023-08-12T07:02:18;22.60;61.70
25906;DHT22;13713;52.552;13.204;2023-08-12T07:04:43;22.60;61.70
25906;DHT22;13713;52.552;13.204;2023-08-12T07:07:09;22.60;61.70
25906;DHT22;13713;52.552;13.204;2023-08-12T07:09:35;22.60;61.70
25906;DHT22;13713;52.552;13.204;2023-08-12T07:12:00;22.60;61.70
25906;DHT22;13713;52.552;13.204;2023-08-12T07:14:27;22.60;61.70
25906;DHT22;13713;52.552;13.204;2023-08-12T07:16:53;22.60;61.70
25906;DHT22;13713;52.552;13.204;2023-08-12T07:19:19;22.60;61.70
25906;DHT22;13713;52.552;13.204;2023-08-12T07:21:44;22.60;61.70
25906;DHT22;13713;52.552;13.204;2023-08-12T07:24:10;22.60;61.70
25906;DHT22;13713;52.552;13.204;2023-08-12T07:26:36;22.70;61.70
25906;DHT22;13713;52.552;13.204;2023-08-12T07:29:01;22.60;61.70
25906;DHT22;13713;52.552;13.204;2023-08-12T07:31:27;22.70;61.70
25906;DHT22;13713;52.552;13.204;2023-08-12T07:33:52;22.60;61.70
25906;DHT22;13713;52.552;13.204;2023-08-12T07:36:18;22.60;61.70
25906;DHT22;13713;52.552;13.204;2023-08-12T07:38:43;22.60;61.70
25906;DHT22;13713;52.552;13.204;2023-08-12T07:41:09;22.60;61.70
25906;DHT22;13713;52.552;13.204;2023-08-12T07:43:34;22.60;61.70
25906;DHT22;13713;52.552;13.204;2023-08-12T07:46:00;22.60;61.70
25906;DHT22;13713;52.552;13.204;2023-08-12T07:48:26;22.60;61.70
25906;DHT22;13713;52.552;13.204;2023-08-12T07:50:57;22.60;61.80
25906;DHT22;13713;52.552;13.204;2023-08-12T07:53:23;22.70;61.80
25906;DHT22;13713;52.552;13.204;2023-08-12T07:55:49;22.60;61.70
25906;DHT22;13713;52.552;13.204;2023-08-12T07:58:15;22.60;61.70
25906;DHT22;13713;52.552;13.204;2023-08-12T08:00:40;22.60;61.70
25906;DHT22;13713;52.552;13.204;2023-08-12T08:03:06;22.60;61.70
25906;DHT22;13713;52.552;13.204;2023-08-12T08:05:32;22.60;61.70
25906;DHT22;13713;52.552;13.204;2023-08-12T08:07:57;22.60;61.80
25906;DHT22;13713;52.552;13.204;2023-08-12T08:10:23;22.60;61.80
25906;DHT22;13713;52.552;13.204;2023-08-12T08:12:48;22.60;61.80
25906;DHT22;13713;52.552;13.204;2023-08-12T08:15:14;22.60;61.80
25906;DHT22;13713;52.552;13.204;2023-08-12T08:17:39;22.60;61.80
25906;DHT22;13713;52.552;13.204;2023-08-12T08:20:05;22.60;61.80
25906;DHT22;13713;52.552;13.204;2023-08-12T08:22:31;22.60;61.80
25906;DHT22;13713;52.552;13.204;2023-08-12T08:24:56;22.50;61.80
25906;DHT22;13713;52.552;13.204;2023-08-12T08:27:22;22.60;61.80
25906;DHT22;13713;52.552;13.204;2023-08-12T08:29:48;22.60;61.80
25906;DHT22;13713;52.552;13.204;2023-08-12T08:32:13;22.60;61.90
25906;DHT22;13713;52.552;13.204;2023-08-12T08:34:39;22.60;61.80
25906;DHT22;13713;52.552;13.204;2023-08-12T08:37:04;22.60;61.90
25906;DHT22;13713;52.552;13.204;2023-08-12T08:39:30;22.60;61.90
25906;DHT22;13713;52.552;13.204;2023-08-12T08:41:56;22.60;61.90
25906;DHT22;13713;52.552;13.204;2023-08-12T08:44:22;22.60;61.90
25906;DHT22;13713;52.552;13.204;2023-08-12T08:46:51;22.60;61.90
25906;DHT22;13713;52.552;13.204;2023-08-12T08:49:18;22.60;61.90
25906;DHT22;13713;52.552;13.204;2023-08-12T08:51:43;22.60;61.90
25906;DHT22;13713;52.552;13.204;2023-08-12T08:54:10;22.60;62.00
25906;DHT22;13713;52.552;13.204;2023-08-12T08:56:36;22.60;62.00
25906;DHT22;13713;52.552;13.204;2023-08-12T08:59:02;22.60;61.90
25906;DHT22;13713;52.552;13.204;2023-08-12T09:01:28;22.60;61.90
25906;DHT22;13713;52.552;13.204;2023-08-12T09:03:54;22.60;62.00
25906;DHT22;13713;52.552;13.204;2023-08-12T09:06:20;22.60;62.00
25906;DHT22;13713;52.552;13.204;2023-08-12T09:08:47;22.60;62.80
25906;DHT22;13713;52.552;13.204;2023-08-12T09:11:13;22.60;62.00
25906;DHT22;13713;52.552;13.204;2023-08-12T09:13:39;22.60;62.00
25906;DHT22;13713;52.552;13.204;2023-08-12T09:16:05;22.60;62.00
25906;DHT22;13713;52.552;13.204;2023-08-12T09:18:30;22.60;62.00
25906;DHT22;13713;52.552;13.204;2023-08-12T09:20:56;22.60;62.00
25906;DHT22;13713;52.552;13.204;2023-08-12T09:23:21;22.60;62.00
25906;DHT22;13713;52.552;13.204;2023-08-12T09:25:47;22.50;62.00
25906;DHT22;13713;52.552;13.204;2023-08-12T09:28:13;22.60;62.00
25906;DHT22;13713;52.552;13.204;2023-08-12T09:30:39;22.50;62.00
25906;DHT22;13713;52.552;13.204;2023-08-12T09:33:05;22.60;62.10
25906;DHT22;13713;52.552;13.204;2023-08-12T09:35:40;22.60;62.10
25906;DHT22;13713;52.552;13.204;2023-08-12T09:38:06;22.60;62.10
25906;DHT22;13713;52.552;13.204;2023-08-12T09:40:33;22.60;62.10
25906;DHT22;13713;52.552;13.204;2023-08-12T09:42:59;22.60;62.10
25906;DHT22;13713;52.552;13.204;2023-08-12T09:45:25;22.60;62.10
25906;DHT22;13713;52.552;13.204;2023-08-12T09:47:52;22.60;62.10
25906;DHT22;13713;52.552;13.204;2023-08-12T09:50:18;22.60;62.10
25906;DHT22;13713;52.552;13.204;2023-08-12T09:52:46;22.50;62.10
25906;DHT22;13713;52.552;13.204;2023-08-12T09:55:12;22.60;62.20
25906;DHT22;13713;52.552;13.204;2023-08-12T09:57:41;22.50;62.10
25906;DHT22;13713;52.552;13.204;2023-08-12T10:00:08;22.50;62.10
25906;DHT22;13713;52.552;13.204;2023-08-12T10:02:39;22.60;62.20
25906;DHT22;13713;52.552;13.204;2023-08-12T10:05:05;22.60;62.20
25906;DHT22;13713;52.552;13.204;2023-08-12T10:07:32;22.60;62.20
25906;DHT22;13713;52.552;13.204;2023-08-12T10:09:57;22.50;62.20
25906;DHT22;13713;52.552;13.204;2023-08-12T10:12:23;22.60;62.30
25906;DHT22;13713;52.552;13.204;2023-08-12T10:14:49;22.60;62.20
25906;DHT22;13713;52.552;13.204;2023-08-12T10:17:14;22.60;62.30
25906;DHT22;13713;52.552;13.204;2023-08-12T10:19:43;22.60;62.30
25906;DHT22;13713;52.552;13.204;2023-08-12T10:22:09;22.60;62.30
25906;DHT22;13713;52.552;13.204;2023-08-12T10:24:35;22.50;62.20
25906;DHT22;13713;52.552;13.204;2023-08-12T10:27:01;22.60;62.30
25906;DHT22;13713;52.552;13.204;2023-08-12T10:29:27;22.50;62.20
25906;DHT22;13713;52.552;13.204;2023-08-12T10:31:54;22.50;62.20
25906;DHT22;13713;52.552;13.204;2023-08-12T10:34:21;22.50;62.20
25906;DHT22;13713;52.552;13.204;2023-08-12T10:36:48;22.50;62.30
25906;DHT22;13713;52.552;13.204;2023-08-12T10:39:13;22.60;62.30
25906;DHT22;13713;52.552;13.204;2023-08-12T10:41:43;22.60;62.40
25906;DHT22;13713;52.552;13.204;2023-08-12T10:44:15;22.60;62.40
25906;DHT22;13713;52.552;13.204;2023-08-12T10:46:41;22.60;62.40
25906;DHT22;13713;52.552;13.204;2023-08-12T10:49:15;22.60;62.40
25906;DHT22;13713;52.552;13.204;2023-08-12T10:51:41;22.50;62.40
25906;DHT22;13713;52.552;13.204;2023-08-12T10:54:24;22.60;62.40
25906;DHT22;13713;52.552;13.204;2023-08-12T11:02:22;22.50;62.40
25906;DHT22;13713;52.552;13.204;2023-08-12T11:04:49;22.60;62.40
25906;DHT22;13713;52.552;13.204;2023-08-12T11:07:15;22.60;62.50
25906;DHT22;13713;52.552;13.204;2023-08-12T11:09:41;22.60;62.50
25906;DHT22;13713;52.552;13.204;2023-08-12T11:12:08;22.60;62.50
25906;DHT22;13713;52.552;13.204;2023-08-12T11:14:33;22.60;62.50
25906;DHT22;13713;52.552;13.204;2023-08-12T11:17:13;22.60;62.50
25906;DHT22;13713;52.552;13.204;2023-08-12T11:19:38;22.60;62.60
25906;DHT22;13713;52.552;13.204;2023-08-12T11:22:04;22.60;62.60
25906;DHT22;13713;52.552;13.204;2023-08-12T11:24:30;22.60;62.70
25906;DHT22;13713;52.552;13.204;2023-08-12T11:26:58;22.60;62.60
25906;DHT22;13713;52.552;13.204;2023-08-12T11:29:25;22.60;62.60
25906;DHT22;13713;52.552;13.204;2023-08-12T11:31:50;22.60;62.60
25906;DHT22;13713;52.552;13.204;2023-08-12T11:34:16;22.60;62.70
25906;DHT22;13713;52.552;13.204;2023-08-12T11:36:42;22.60;62.60
25906;DHT22;13713;52.552;13.204;2023-08-12T11:39:07;22.60;62.70
25906;DHT22;13713;52.552;13.204;2023-08-12T11:41:33;22.60;62.70
25906;DHT22;13713;52.552;13.204;2023-08-12T11:43:59;22.60;62.80
25906;DHT22;13713;52.552;13.204;2023-08-12T11:46:25;22.60;62.70
25906;DHT22;13713;52.552;13.204;2023-08-12T11:48:50;22.60;62.70
25906;DHT22;13713;52.552;13.204;2023-08-12T11:51:16;22.60;62.80
25906;DHT22;13713;52.552;13.204;2023-08-12T11:53:42;22.60;62.80
25906;DHT22;13713;52.552;13.204;2023-08-12T11:56:07;22.50;62.70
25906;DHT22;13713;52.552;13.204;2023-08-12T11:58:36;22.60;62.90
25906;DHT22;13713;52.552;13.204;2023-08-12T12:01:02;22.60;62.90
25906;DHT22;13713;52.552;13.204;2023-08-12T12:03:28;22.60;62.90
25906;DHT22;13713;52.552;13.204;2023-08-12T12:05:55;22.60;62.90
25906;DHT22;13713;52.552;13.204;2023-08-12T12:08:20;22.70;63.00
25906;DHT22;13713;52.552;13.204;2023-08-12T12:10:46;22.60;62.90
25906;DHT22;13713;52.552;13.204;2023-08-12T12:13:12;22.60;63.00
25906;DHT22;13713;52.552;13.204;2023-08-12T12:15:43;22.60;63.00
25906;DHT22;13713;52.552;13.204;2023-08-12T12:18:09;22.60;63.00
25906;DHT22;13713;52.552;13.204;2023-08-12T12:20:35;22.60;63.00
25906;DHT22;13713;52.552;13.204;2023-08-12T12:23:04;22.60;63.10
25906;DHT22;13713;52.552;13.204;2023-08-12T12:25:31;22.60;63.10
25906;DHT22;13713;52.552;13.204;2023-08-12T12:27:56;22.60;63.10
25906;DHT22;13713;52.552;13.204;2023-08-12T12:30:22;22.60;63.10
25906;DHT22;13713;52.552;13.204;2023-08-12T12:32:47;22.60;63.20
25906;DHT22;13713;52.552;13.204;2023-08-12T12:35:14;22.60;63.20
25906;DHT22;13713;52.552;13.204;2023-08-12T12:37:39;22.60;63.20
25906;DHT22;13713;52.552;13.204;2023-08-12T12:40:05;22.60;64.00
25906;DHT22;13713;52.552;13.204;2023-08-12T12:42:30;22.60;63.30
25906;DHT22;13713;52.552;13.204;2023-08-12T12:44:57;22.60;63.30
25906;DHT22;13713;52.552;13.204;2023-08-12T12:47:22;22.60;63.30
25906;DHT22;13713;52.552;13.204;2023-08-12T12:49:48;22.60;63.40
25906;DHT22;13713;52.552;13.204;2023-08-12T12:52:13;22.60;63.40
25906;DHT22;13713;52.552;13.204;2023-08-12T12:54:39;22.60;63.50
25906;DHT22;13713;52.552;13.204;2023-08-12T12:57:05;22.60;63.40
25906;DHT22;13713;52.552;13.204;2023-08-12T12:59:30;22.60;63.50
25906;DHT22;13713;52.552;13.204;2023-08-12T13:01:56;22.60;63.50
25906;DHT22;13713;52.552;13.204;2023-08-12T13:04:22;22.60;63.50
25906;DHT22;13713;52.552;13.204;2023-08-12T13:06:47;22.60;63.50
25906;DHT22;13713;52.552;13.204;2023-08-12T13:09:13;22.60;63.60
25906;DHT22;13713;52.552;13.204;2023-08-12T13:11:39;22.60;63.60
25906;DHT22;13713;52.552;13.204;2023-08-12T13:14:04;22.60;63.60
25906;DHT22;13713;52.552;13.204;2023-08-12T13:16:30;22.60;63.60
25906;DHT22;13713;52.552;13.204;2023-08-12T13:18:56;22.60;64.50
25906;DHT22;13713;52.552;13.204;2023-08-12T13:21:27;22.70;63.80
25906;DHT22;13713;52.552;13.204;2023-08-12T13:23:53;22.60;64.50
25906;DHT22;13713;52.552;13.204;2023-08-12T13:26:19;22.60;63.80
25906;DHT22;13713;52.552;13.204;2023-08-12T13:28:45;22.60;63.70
25906;DHT22;13713;52.552;13.204;2023-08-12T13:31:11;22.70;63.80
25906;DHT22;13713;52.552;13.204;2023-08-12T13:33:36;22.60;63.80
25906;DHT22;13713;52.552;13.204;2023-08-12T13:36:02;22.60;63.80
25906;DHT22;13713;52.552;13.204;2023-08-12T13:38:27;22.70;63.90
25906;DHT22;13713;52.552;13.204;2023-08-12T13:40:55;22.60;63.80
25906;DHT22;13713;52.552;13.204;2023-08-12T13:43:20;22.70;63.90
25906;DHT22;13713;52.552;13.204;2023-08-12T13:45:46;22.60;63.90
25906;DHT22;13713;52.552;13.204;2023-08-12T13:48:11;22.70;63.90
25906;DHT22;13713;52.552;13.204;2023-08-12T13:50:37;22.70;64.00
25906;DHT22;13713;52.552;13.204;2023-08-12T13:53:03;22.60;63.90
25906;DHT22;13713;52.552;13.204;2023-08-12T13:55:28;22.60;63.90
25906;DHT22;13713;52.552;13.204;2023-08-12T13:57:54;22.60;64.00
25906;DHT22;13713;52.552;13.204;2023-08-12T14:00:19;22.70;64.10
25906;DHT22;13713;52.552;13.204;2023-08-12T14:02:45;22.70;64.10
25906;DHT22;13713;52.552;13.204;2023-08-12T14:05:13;22.70;64.10
25906;DHT22;13713;52.552;13.204;2023-08-12T14:07:38;22.70;64.10
25906;DHT22;13713;52.552;13.204;2023-08-12T14:10:04;22.60;64.00
25906;DHT22;13713;52.552;13.204;2023-08-12T14:12:30;22.60;64.10
25906;DHT22;13713;52.552;13.204;2023-08-12T14:14:55;22.60;64.10
25906;DHT22;13713;52.552;13.204;2023-08-12T14:17:21;22.70;64.20
25906;DHT22;13713;52.552;13.204;2023-08-12T14:19:49;22.60;64.10
25906;DHT22;13713;52.552;13.204;2023-08-12T14:22:14;22.70;64.20
25906;DHT22;13713;52.552;13.204;2023-08-12T14:24:40;22.70;64.20
25906;DHT22;13713;52.552;13.204;2023-08-12T14:27:05;22.70;64.30
25906;DHT22;13713;52.552;13.204;2023-08-12T14:29:31;22.70;64.30
25906;DHT22;13713;52.552;13.204;2023-08-12T14:31:57;22.70;64.30
25906;DHT22;13713;52.552;13.204;2023-08-12T14:34:23;22.70;64.30
25906;DHT22;13713;52.552;13.204;2023-08-12T14:36:48;22.70;65.20
25906;DHT22;13713;52.552;13.204;2023-08-12T14:39:14;22.70;64.40
25906;DHT22;13713;52.552;13.204;2023-08-12T14:41:40;22.70;64.40
25906;DHT22;13713;52.552;13.204;2023-08-12T14:44:05;22.70;64.40
25906;DHT22;13713;52.552;13.204;2023-08-12T14:46:31;22.70;64.40
25906;DHT22;13713;52.552;13.204;2023-08-12T14:48:56;22.60;64.40
25906;DHT22;13713;52.552;13.204;2023-08-12T14:51:22;22.70;64.40
25906;DHT22;13713;52.552;13.204;2023-08-12T14:53:48;22.70;64.50
25906;DHT22;13713;52.552;13.204;2023-08-12T14:56:14;22.70;64.50
25906;DHT22;13713;52.552;13.204;2023-08-12T14:58:40;22.70;65.40
25906;DHT22;13713;52.552;13.204;2023-08-12T15:01:05;22.60;64.50
25906;DHT22;13713;52.552;13.204;2023-08-12T15:03:32;22.70;64.60
25906;DHT22;13713;52.552;13.204;2023-08-12T15:05:58;22.70;64.70
25906;DHT22;13713;52.552;13.204;2023-08-12T15:08:24;22.70;64.70
25906;DHT22;13713;52.552;13.204;2023-08-12T15:10:49;22.70;64.70
25906;DHT22;13713;52.552;13.204;2023-08-12T15:13:15;22.70;64.70
25906;DHT22;13713;52.552;13.204;2023-08-12T15:15:44;22.70;64.70